sensor_id;sensor_type;location;lat;lon;timestamp;pressure;altitude;pressure_sealevel;temperature;humidity
11888;BME280;6003;42.756;23.130;2023-02-10T00:02:01;150556.75;;;-7.27;88.48
11888;BME280;6003;42.756;23.130;2023-02-10T00:04:27;150551.53;;;-7.29;88.22
11888;BME280;6003;42.756;23.130;2023-02-10T00:06:55;150522.91;;;-7.40;88.18
11888;BME280;6003;42.756;23.130;2023-02-10T00:09:22;150546.38;;;-7.31;88.56
11888;BME280;6003;42.756;23.130;2023-02-10T00:11:49;150542.44;;;-7.32;88.50
11888;BME280;6003;42.756;23.130;2023-02-10T00:14:27;150543.75;;;-7.32;88.14
11888;BME280;6003;42.756;23.130;2023-02-10T00:16:54;150533.34;;;-7.36;88.69
11888;BME280;6003;42.756;23.130;2023-02-10T00:19:22;150533.34;;;-7.36;88.46
11888;BME280;6003;42.756;23.130;2023-02-10T00:21:50;150533.34;;;-7.36;88.64
11888;BME280;6003;42.756;23.130;2023-02-10T00:24:18;150529.41;;;-7.37;89.12
11888;BME280;6003;42.756;23.130;2023-02-10T00:26:46;150508.59;;;-7.45;88.88
11888;BME280;6003;42.756;23.130;2023-02-10T00:29:13;150524.19;;;-7.39;88.76
11888;BME280;6003;42.756;23.130;2023-02-10T00:31:40;150528.13;;;-7.38;88.64
11888;BME280;6003;42.756;23.130;2023-02-10T00:34:09;150533.34;;;-7.36;88.57
11888;BME280;6003;42.756;23.130;2023-02-10T00:36:37;150525.53;;;-7.39;88.76
11888;BME280;6003;42.756;23.130;2023-02-10T00:39:04;150517.75;;;-7.42;88.67
11888;BME280;6003;42.756;23.130;2023-02-10T00:41:32;150512.53;;;-7.44;88.63
11888;BME280;6003;42.756;23.130;2023-02-10T00:43:59;150520.31;;;-7.41;88.23
11888;BME280;6003;42.756;23.130;2023-02-10T00:46:26;150515.09;;;-7.43;88.64
11888;BME280;6003;42.756;23.130;2023-02-10T00:48:53;150500.78;;;-7.49;88.65
11888;BME280;6003;42.756;23.130;2023-02-10T00:51:19;150502.09;;;-7.48;88.35
11888;BME280;6003;42.756;23.130;2023-02-10T00:53:47;150507.31;;;-7.46;88.50
11888;BME280;6003;42.756;23.130;2023-02-10T00:56:16;150504.72;;;-7.47;88.17
11888;BME280;6003;42.756;23.130;2023-02-10T01:02:08;150494.28;;;-7.51;88.69
11888;BME280;6003;42.756;23.130;2023-02-10T01:04:35;150489.13;;;-7.53;88.44
11888;BME280;6003;42.756;23.130;2023-02-10T01:07:01;150494.28;;;-7.51;88.04
11888;BME280;6003;42.756;23.130;2023-02-10T01:12:50;150455.28;;;-7.66;88.07
11888;BME280;6003;42.756;23.130;2023-02-10T01:15:17;150440.97;;;-7.72;88.51
11888;BME280;6003;42.756;23.130;2023-02-10T01:17:45;150439.66;;;-7.73;88.46
11888;BME280;6003;42.756;23.130;2023-02-10T01:20:12;150437.09;;;-7.74;88.48
11888;BME280;6003;42.756;23.130;2023-02-10T01:22:39;150430.56;;;-7.76;88.36
11888;BME280;6003;42.756;23.130;2023-02-10T01:25:06;150426.66;;;-7.78;88.06
11888;BME280;6003;42.756;23.130;2023-02-10T01:27:33;150403.25;;;-7.87;88.66
11888;BME280;6003;42.756;23.130;2023-02-10T01:29:59;150366.84;;;-8.01;88.60
11888;BME280;6003;42.756;23.130;2023-02-10T01:32:26;150356.44;;;-8.05;89.17
11888;BME280;6003;42.756;23.130;2023-02-10T01:34:54;150310.91;;;-8.23;89.68
11888;BME280;6003;42.756;23.130;2023-02-10T01:37:21;150335.63;;;-8.13;89.98
11888;BME280;6003;42.756;23.130;2023-02-10T01:39:48;150349.94;;;-8.08;89.63
11888;BME280;6003;42.756;23.130;2023-02-10T01:42:15;150294.00;;;-8.30;90.48
11888;BME280;6003;42.756;23.130;2023-02-10T01:45:18;150257.66;;;-8.44;90.68
11888;BME280;6003;42.756;23.130;2023-02-10T01:47:47;150284.91;;;-8.33;91.17
11888;BME280;6003;42.756;23.130;2023-02-10T01:50:18;150244.66;;;-8.49;91.70
11888;BME280;6003;42.756;23.130;2023-02-10T01:52:46;150279.72;;;-8.35;92.04
11888;BME280;6003;42.756;23.130;2023-02-10T01:55:17;150304.38;;;-8.26;91.84
11888;BME280;6003;42.756;23.130;2023-02-10T01:57:45;150314.81;;;-8.22;91.62
11888;BME280;6003;42.756;23.130;2023-02-10T02:00:13;150316.13;;;-8.21;91.17
11888;BME280;6003;42.756;23.130;2023-02-10T02:02:42;150312.22;;;-8.23;90.99
11888;BME280;6003;42.756;23.130;2023-02-10T02:05:27;150312.22;;;-8.23;91.09
11888;BME280;6003;42.756;23.130;2023-02-10T02:07:56;150308.31;;;-8.24;91.35
11888;BME280;6003;42.756;23.130;2023-02-10T02:10:30;150322.63;;;-8.19;91.26
11888;BME280;6003;42.756;23.130;2023-02-10T02:13:04;150314.81;;;-8.22;91.05
11888;BME280;6003;42.756;23.130;2023-02-10T02:15:38;150327.84;;;-8.17;91.08
11888;BME280;6003;42.756;23.130;2023-02-10T02:18:11;150334.34;;;-8.14;90.97
11888;BME280;6003;42.756;23.130;2023-02-10T02:30:03;150333.00;;;-8.14;90.03
11888;BME280;6003;42.756;23.130;2023-02-10T02:32:36;150308.31;;;-8.24;90.06
11888;BME280;6003;42.756;23.130;2023-02-10T02:35:08;150310.91;;;-8.23;90.20
11888;BME280;6003;42.756;23.130;2023-02-10T02:37:37;150322.63;;;-8.19;89.72
11888;BME280;6003;42.756;23.130;2023-02-10T02:40:08;150320.03;;;-8.20;89.69
11888;BME280;6003;42.756;23.130;2023-02-10T02:42:35;150326.50;;;-8.17;89.99
11888;BME280;6003;42.756;23.130;2023-02-10T02:45:05;150325.19;;;-8.18;90.14
11888;BME280;6003;42.756;23.130;2023-02-10T02:50:35;150320.03;;;-8.20;89.28
11888;BME280;6003;42.756;23.130;2023-02-10T02:53:14;150317.41;;;-8.21;89.57
11888;BME280;6003;42.756;23.130;2023-02-10T02:55:50;150317.41;;;-8.21;89.60
11888;BME280;6003;42.756;23.130;2023-02-10T02:58:26;150320.03;;;-8.20;89.75
11888;BME280;6003;42.756;23.130;2023-02-10T03:00:57;150323.91;;;-8.18;89.88
11888;BME280;6003;42.756;23.130;2023-02-10T03:03:30;150330.41;;;-8.15;89.74
11888;BME280;6003;42.756;23.130;2023-02-10T03:06:00;150318.69;;;-8.20;89.43
11888;BME280;6003;42.756;23.130;2023-02-10T03:08:28;150327.84;;;-8.17;89.25
11888;BME280;6003;42.756;23.130;2023-02-10T03:10:56;150344.72;;;-8.10;90.13
11888;BME280;6003;42.756;23.130;2023-02-10T03:13:23;150344.72;;;-8.10;90.50
11888;BME280;6003;42.756;23.130;2023-02-10T03:15:49;150338.22;;;-8.12;90.71
11888;BME280;6003;42.756;23.130;2023-02-10T03:18:16;150313.53;;;-8.22;91.01
11888;BME280;6003;42.756;23.130;2023-02-10T03:20:43;150296.59;;;-8.29;91.49
11888;BME280;6003;42.756;23.130;2023-02-10T03:23:11;150313.53;;;-8.22;91.19
11888;BME280;6003;42.756;23.130;2023-02-10T03:25:38;150309.59;;;-8.24;91.11
11888;BME280;6003;42.756;23.130;2023-02-10T03:28:05;150325.19;;;-8.18;91.46
11888;BME280;6003;42.756;23.130;2023-02-10T03:30:32;150326.50;;;-8.17;91.01
11888;BME280;6003;42.756;23.130;2023-02-10T03:32:59;150327.84;;;-8.17;90.53
11888;BME280;6003;42.756;23.130;2023-02-10T03:35:26;150333.00;;;-8.14;90.43
11888;BME280;6003;42.756;23.130;2023-02-10T03:37:52;150330.41;;;-8.15;89.79
11888;BME280;6003;42.756;23.130;2023-02-10T03:40:21;150320.03;;;-8.20;89.50
11888;BME280;6003;42.756;23.130;2023-02-10T03:42:47;150313.53;;;-8.22;89.26
11888;BME280;6003;42.756;23.130;2023-02-10T03:45:14;150297.94;;;-8.28;89.05
11888;BME280;6003;42.756;23.130;2023-02-10T03:47:41;150275.84;;;-8.37;88.64
11888;BME280;6003;42.756;23.130;2023-02-10T03:50:08;150273.19;;;-8.38;88.45
11888;BME280;6003;42.756;23.130;2023-02-10T03:52:35;150266.75;;;-8.41;88.90
11888;BME280;6003;42.756;23.130;2023-02-10T03:55:02;150262.88;;;-8.42;89.24
11888;BME280;6003;42.756;23.130;2023-02-10T03:57:30;150268.03;;;-8.40;89.33
11888;BME280;6003;42.756;23.130;2023-02-10T03:59:57;150270.66;;;-8.39;89.70
11888;BME280;6003;42.756;23.130;2023-02-10T04:02:24;150266.75;;;-8.41;89.69
11888;BME280;6003;42.756;23.130;2023-02-10T04:04:50;150242.06;;;-8.50;90.35
11888;BME280;6003;42.756;23.130;2023-02-10T04:07:17;150209.53;;;-8.63;91.24
11888;BME280;6003;42.756;23.130;2023-02-10T04:09:44;150223.84;;;-8.57;91.27
11888;BME280;6003;42.756;23.130;2023-02-10T04:12:11;150238.16;;;-8.52;91.64
11888;BME280;6003;42.756;23.130;2023-02-10T04:14:39;150257.66;;;-8.44;91.26
11888;BME280;6003;42.756;23.130;2023-02-10T04:17:06;150262.88;;;-8.42;90.85
11888;BME280;6003;42.756;23.130;2023-02-10T04:19:33;150229.06;;;-8.55;90.26
11888;BME280;6003;42.756;23.130;2023-02-10T04:21:59;150200.47;;;-8.67;90.01
11888;BME280;6003;42.756;23.130;2023-02-10T04:24:26;150203.09;;;-8.66;89.91
11888;BME280;6003;42.756;23.130;2023-02-10T04:26:53;150206.97;;;-8.64;89.90
11888;BME280;6003;42.756;23.130;2023-02-10T04:29:21;150187.44;;;-8.72;90.08
11888;BME280;6003;42.756;23.130;2023-02-10T04:31:49;150203.09;;;-8.66;90.17
11888;BME280;6003;42.756;23.130;2023-02-10T04:34:16;150182.28;;;-8.74;90.43
11888;BME280;6003;42.756;23.130;2023-02-10T04:36:42;150179.66;;;-8.75;90.39
11888;BME280;6003;42.756;23.130;2023-02-10T04:39:09;150165.38;;;-8.80;90.51
11888;BME280;6003;42.756;23.130;2023-02-10T04:41:36;150161.50;;;-8.82;90.54
11888;BME280;6003;42.756;23.130;2023-02-10T04:44:03;150171.88;;;-8.78;91.11
11888;BME280;6003;42.756;23.130;2023-02-10T04:46:31;150166.69;;;-8.80;91.21
11888;BME280;6003;42.756;23.130;2023-02-10T04:49:23;150177.06;;;-8.76;91.13
11888;BME280;6003;42.756;23.130;2023-02-10T04:51:50;150169.28;;;-8.79;91.20
11888;BME280;6003;42.756;23.130;2023-02-10T04:54:17;150158.91;;;-8.83;91.20
11888;BME280;6003;42.756;23.130;2023-02-10T04:56:44;150110.81;;;-9.02;90.86
11888;BME280;6003;42.756;23.130;2023-02-10T04:59:11;150083.53;;;-9.13;90.94
11888;BME280;6003;42.756;23.130;2023-02-10T05:01:38;150106.88;;;-9.03;91.21
11888;BME280;6003;42.756;23.130;2023-02-10T05:04:05;150119.91;;;-8.98;91.08
11888;BME280;6003;42.756;23.130;2023-02-10T05:06:33;150121.19;;;-8.98;91.58
11888;BME280;6003;42.756;23.130;2023-02-10T05:09:00;150112.09;;;-9.01;91.49
11888;BME280;6003;42.756;23.130;2023-02-10T05:11:27;150123.81;;;-8.97;91.76
11888;BME280;6003;42.756;23.130;2023-02-10T05:13:54;150131.59;;;-8.94;91.91
11888;BME280;6003;42.756;23.130;2023-02-10T05:16:21;150132.91;;;-8.93;91.94
11888;BME280;6003;42.756;23.130;2023-02-10T05:18:47;150132.91;;;-8.93;92.23
11888;BME280;6003;42.756;23.130;2023-02-10T05:21:14;150135.47;;;-8.92;92.09
11888;BME280;6003;42.756;23.130;2023-02-10T05:23:42;150131.59;;;-8.94;91.88
11888;BME280;6003;42.756;23.130;2023-02-10T05:26:09;150119.91;;;-8.98;91.46
11888;BME280;6003;42.756;23.130;2023-02-10T05:28:36;150122.53;;;-8.97;91.12
11888;BME280;6003;42.756;23.130;2023-02-10T05:31:03;150130.31;;;-8.94;91.07
11888;BME280;6003;42.756;23.130;2023-02-10T05:33:32;150119.91;;;-8.98;90.97
11888;BME280;6003;42.756;23.130;2023-02-10T05:35:59;150117.31;;;-8.99;90.69
11888;BME280;6003;42.756;23.130;2023-02-10T05:38:26;150109.53;;;-9.02;90.51
11888;BME280;6003;42.756;23.130;2023-02-10T05:40:54;150097.81;;;-9.07;90.55
11888;BME280;6003;42.756;23.130;2023-02-10T05:43:21;150078.34;;;-9.15;90.66
11888;BME280;6003;42.756;23.130;2023-02-10T05:45:48;150091.31;;;-9.10;91.20
11888;BME280;6003;42.756;23.130;2023-02-10T05:48:16;150092.59;;;-9.09;90.94
11888;BME280;6003;42.756;23.130;2023-02-10T05:50:43;150104.31;;;-9.04;90.95
11888;BME280;6003;42.756;23.130;2023-02-10T05:53:10;150139.41;;;-8.91;90.88
11888;BME280;6003;42.756;23.130;2023-02-10T05:55:38;150173.22;;;-8.77;91.61
11888;BME280;6003;42.756;23.130;2023-02-10T05:58:06;150197.88;;;-8.68;91.95
11888;BME280;6003;42.756;23.130;2023-02-10T06:00:33;150221.25;;;-8.58;91.73
11888;BME280;6003;42.756;23.130;2023-02-10T06:03:00;150229.06;;;-8.55;92.08
11888;BME280;6003;42.756;23.130;2023-02-10T06:05:26;150266.75;;;-8.41;91.90
11888;BME280;6003;42.756;23.130;2023-02-10T06:07:53;150294.00;;;-8.30;91.34
11888;BME280;6003;42.756;23.130;2023-02-10T06:10:21;150333.00;;;-8.14;91.84
11888;BME280;6003;42.756;23.130;2023-02-10T06:12:48;150373.34;;;-7.99;91.37
11888;BME280;6003;42.756;23.130;2023-02-10T06:15:16;150409.75;;;-7.84;91.71
11888;BME280;6003;42.756;23.130;2023-02-10T06:17:44;150452.69;;;-7.67;91.79
11888;BME280;6003;42.756;23.130;2023-02-10T06:20:11;150498.22;;;-7.50;91.88
11888;BME280;6003;42.756;23.130;2023-02-10T06:22:38;150546.38;;;-7.31;91.43
11888;BME280;6003;42.756;23.130;2023-02-10T06:25:05;150601.00;;;-7.09;90.86
11888;BME280;6003;42.756;23.130;2023-02-10T06:27:32;150624.44;;;-7.00;90.73
11888;BME280;6003;42.756;23.130;2023-02-10T06:29:58;150694.75;;;-6.72;90.54
11888;BME280;6003;42.756;23.130;2023-02-10T06:32:27;150745.53;;;-6.52;90.07
11888;BME280;6003;42.756;23.130;2023-02-10T06:34:53;150801.50;;;-6.30;89.80
11888;BME280;6003;42.756;23.130;2023-02-10T06:37:20;150852.31;;;-6.10;89.21
11888;BME280;6003;42.756;23.130;2023-02-10T06:39:47;150908.31;;;-5.88;88.78
11888;BME280;6003;42.756;23.130;2023-02-10T06:42:14;150964.38;;;-5.67;87.64
11888;BME280;6003;42.756;23.130;2023-02-10T06:44:40;151011.28;;;-5.48;85.17
11888;BME280;6003;42.756;23.130;2023-02-10T06:47:07;151020.41;;;-5.45;83.20
11888;BME280;6003;42.756;23.130;2023-02-10T06:49:35;150998.22;;;-5.53;82.79
11888;BME280;6003;42.756;23.130;2023-02-10T06:52:02;150996.94;;;-5.54;82.42
11888;BME280;6003;42.756;23.130;2023-02-10T06:54:29;150985.19;;;-5.58;81.52
11888;BME280;6003;42.756;23.130;2023-02-10T06:56:56;150999.53;;;-5.53;82.32
11888;BME280;6003;42.756;23.130;2023-02-10T06:59:23;151020.41;;;-5.45;81.66
11888;BME280;6003;42.756;23.130;2023-02-10T07:01:49;151036.03;;;-5.38;82.64
11888;BME280;6003;42.756;23.130;2023-02-10T07:04:18;151056.91;;;-5.30;81.91
11888;BME280;6003;42.756;23.130;2023-02-10T07:06:47;151047.78;;;-5.34;82.16
11888;BME280;6003;42.756;23.130;2023-02-10T07:09:13;151077.78;;;-5.22;81.94
11888;BME280;6003;42.756;23.130;2023-02-10T07:11:40;151077.78;;;-5.22;82.16
11888;BME280;6003;42.756;23.130;2023-02-10T07:14:07;151086.88;;;-5.18;82.38
11888;BME280;6003;42.756;23.130;2023-02-10T07:16:34;151054.31;;;-5.31;83.12
11888;BME280;6003;42.756;23.130;2023-02-10T07:19:00;150999.53;;;-5.53;83.96
11888;BME280;6003;42.756;23.130;2023-02-10T07:21:28;151012.56;;;-5.48;85.39
11888;BME280;6003;42.756;23.130;2023-02-10T07:23:56;151028.22;;;-5.41;85.78
11888;BME280;6003;42.756;23.130;2023-02-10T07:26:23;151079.06;;;-5.22;84.87
11888;BME280;6003;42.756;23.130;2023-02-10T07:32:11;151126.03;;;-5.03;84.39
11888;BME280;6003;42.756;23.130;2023-02-10T07:34:38;151145.56;;;-4.95;84.42
11888;BME280;6003;42.756;23.130;2023-02-10T07:37:06;151171.69;;;-4.85;84.10
11888;BME280;6003;42.756;23.130;2023-02-10T07:39:34;151146.88;;;-4.95;84.13
11888;BME280;6003;42.756;23.130;2023-02-10T07:42:01;151139.03;;;-4.98;83.91
11888;BME280;6003;42.756;23.130;2023-02-10T07:44:28;151161.22;;;-4.89;83.73
11888;BME280;6003;42.756;23.130;2023-02-10T07:46:55;151208.19;;;-4.71;84.03
11888;BME280;6003;42.756;23.130;2023-02-10T07:49:22;151210.78;;;-4.70;82.72
11888;BME280;6003;42.756;23.130;2023-02-10T07:51:49;151242.09;;;-4.58;82.11
11888;BME280;6003;42.756;23.130;2023-02-10T07:54:16;151270.81;;;-4.46;81.31
11888;BME280;6003;42.756;23.130;2023-02-10T07:56:44;151302.16;;;-4.34;81.02
11888;BME280;6003;42.756;23.130;2023-02-10T07:59:11;151328.22;;;-4.24;81.78
11888;BME280;6003;42.756;23.130;2023-02-10T08:01:39;151383.06;;;-4.02;80.76
11888;BME280;6003;42.756;23.130;2023-02-10T08:04:08;151406.56;;;-3.93;79.10
11888;BME280;6003;42.756;23.130;2023-02-10T08:06:35;151418.28;;;-3.89;78.13
11888;BME280;6003;42.756;23.130;2023-02-10T08:09:02;151427.47;;;-3.85;77.46
11888;BME280;6003;42.756;23.130;2023-02-10T08:11:29;151449.66;;;-3.76;77.50
11888;BME280;6003;42.756;23.130;2023-02-10T08:13:57;151529.31;;;-3.45;77.32
11888;BME280;6003;42.756;23.130;2023-02-10T08:16:24;151563.25;;;-3.32;75.69
11888;BME280;6003;42.756;23.130;2023-02-10T08:18:50;151603.75;;;-3.16;75.96
11888;BME280;6003;42.756;23.130;2023-02-10T08:21:17;151654.72;;;-2.96;76.19
11888;BME280;6003;42.756;23.130;2023-02-10T08:23:44;151627.28;;;-3.07;74.65
11888;BME280;6003;42.756;23.130;2023-02-10T08:26:12;151500.56;;;-3.56;73.15
11888;BME280;6003;42.756;23.130;2023-02-10T08:28:40;151533.19;;;-3.44;75.58
11888;BME280;6003;42.756;23.130;2023-02-10T08:31:09;151612.91;;;-3.12;74.76
11888;BME280;6003;42.756;23.130;2023-02-10T08:33:37;151645.53;;;-3.00;73.23
11888;BME280;6003;42.756;23.130;2023-02-10T08:36:05;151653.38;;;-2.97;72.69
11888;BME280;6003;42.756;23.130;2023-02-10T08:41:24;151798.47;;;-2.40;72.35
11888;BME280;6003;42.756;23.130;2023-02-10T08:43:56;151806.31;;;-2.37;73.57
11888;BME280;6003;42.756;23.130;2023-02-10T08:46:25;151892.59;;;-2.03;73.01
11888;BME280;6003;42.756;23.130;2023-02-10T08:48:52;151872.97;;;-2.11;73.72
11888;BME280;6003;42.756;23.130;2023-02-10T08:51:19;151963.25;;;-1.75;73.41
11888;BME280;6003;42.756;23.130;2023-02-10T08:53:45;151971.09;;;-1.72;71.42
11888;BME280;6003;42.756;23.130;2023-02-10T08:56:15;151985.50;;;-1.67;69.40
11888;BME280;6003;42.756;23.130;2023-02-10T08:58:43;152024.72;;;-1.51;69.38
11888;BME280;6003;42.756;23.130;2023-02-10T09:01:11;152041.72;;;-1.45;70.00
11888;BME280;6003;42.756;23.130;2023-02-10T09:03:41;152053.50;;;-1.40;71.01
11888;BME280;6003;42.756;23.130;2023-02-10T09:06:12;152070.50;;;-1.33;71.55
11888;BME280;6003;42.756;23.130;2023-02-10T09:08:40;152099.31;;;-1.22;70.12
11888;BME280;6003;42.756;23.130;2023-02-10T09:11:08;152149.06;;;-1.03;70.46
11888;BME280;6003;42.756;23.130;2023-02-10T09:13:35;152207.97;;;-0.80;70.79
11888;BME280;6003;42.756;23.130;2023-02-10T09:16:02;152196.16;;;-0.84;69.09
11888;BME280;6003;42.756;23.130;2023-02-10T09:18:29;152190.91;;;-0.86;69.32
11888;BME280;6003;42.756;23.130;2023-02-10T09:20:58;152223.66;;;-0.74;68.24
11888;BME280;6003;42.756;23.130;2023-02-10T09:23:25;152146.41;;;-1.04;68.94
11888;BME280;6003;42.756;23.130;2023-02-10T09:25:52;152175.19;;;-0.93;68.65
11888;BME280;6003;42.756;23.130;2023-02-10T09:28:40;152091.47;;;-1.25;67.76
11888;BME280;6003;42.756;23.130;2023-02-10T09:31:08;152128.09;;;-1.11;68.89
11888;BME280;6003;42.756;23.130;2023-02-10T09:33:35;152192.25;;;-0.86;70.04
11888;BME280;6003;42.756;23.130;2023-02-10T09:36:05;152224.97;;;-0.73;69.97
11888;BME280;6003;42.756;23.130;2023-02-10T09:38:33;152230.22;;;-0.71;67.50
11888;BME280;6003;42.756;23.130;2023-02-10T09:41:06;152222.38;;;-0.74;66.35
11888;BME280;6003;42.756;23.130;2023-02-10T09:43:52;152243.31;;;-0.66;67.82
11888;BME280;6003;42.756;23.130;2023-02-10T09:46:30;152198.81;;;-0.83;67.37
11888;BME280;6003;42.756;23.130;2023-02-10T09:49:15;152188.31;;;-0.87;66.82
11888;BME280;6003;42.756;23.130;2023-02-10T09:51:59;152206.66;;;-0.80;68.34
11888;BME280;6003;42.756;23.130;2023-02-10T09:54:27;152261.63;;;-0.59;67.72
11888;BME280;6003;42.756;23.130;2023-02-10T09:57:01;152282.59;;;-0.51;65.79
11888;BME280;6003;42.756;23.130;2023-02-10T09:59:28;152272.09;;;-0.55;67.18
11888;BME280;6003;42.756;23.130;2023-02-10T10:01:59;152336.28;;;-0.30;65.43
11888;BME280;6003;42.756;23.130;2023-02-10T10:04:30;152370.34;;;-0.16;63.33
11888;BME280;6003;42.756;23.130;2023-02-10T10:07:11;152386.06;;;-0.10;66.25
11888;BME280;6003;42.756;23.130;2023-02-10T10:09:43;152396.50;;;-0.06;64.77
11888;BME280;6003;42.756;23.130;2023-02-10T10:12:13;152371.66;;;-0.16;65.22
11888;BME280;6003;42.756;23.130;2023-02-10T10:14:42;152405.72;;;-0.03;64.62
11888;BME280;6003;42.756;23.130;2023-02-10T10:17:23;152412.28;;;0.00;64.47
11888;BME280;6003;42.756;23.130;2023-02-10T10:20:00;152408.31;;;-0.02;64.77
11888;BME280;6003;42.756;23.130;2023-02-10T10:22:43;152460.72;;;0.19;64.00
11888;BME280;6003;42.756;23.130;2023-02-10T10:25:43;152506.59;;;0.37;63.98
11888;BME280;6003;42.756;23.130;2023-02-10T10:28:25;152595.72;;;0.72;63.42
11888;BME280;6003;42.756;23.130;2023-02-10T10:30:59;152562.97;;;0.59;65.21
11888;BME280;6003;42.756;23.130;2023-02-10T10:33:32;152602.28;;;0.74;63.68
11888;BME280;6003;42.756;23.130;2023-02-10T10:36:01;152620.66;;;0.81;64.36
11888;BME280;6003;42.756;23.130;2023-02-10T10:38:45;152625.88;;;0.83;63.47
11888;BME280;6003;42.756;23.130;2023-02-10T10:41:13;152638.97;;;0.88;61.17
11888;BME280;6003;42.756;23.130;2023-02-10T10:43:45;152607.53;;;0.76;60.40
11888;BME280;6003;42.756;23.130;2023-02-10T10:46:17;152577.38;;;0.64;61.03
11888;BME280;6003;42.756;23.130;2023-02-10T10:48:46;152561.66;;;0.58;61.40
11888;BME280;6003;42.756;23.130;2023-02-10T10:51:13;152576.09;;;0.64;61.23
11888;BME280;6003;42.756;23.130;2023-02-10T10:53:43;152678.34;;;1.04;63.92
11888;BME280;6003;42.756;23.130;2023-02-10T10:56:19;152715.06;;;1.18;59.48
11888;BME280;6003;42.756;23.130;2023-02-10T10:58:49;152718.97;;;1.20;59.45
11888;BME280;6003;42.756;23.130;2023-02-10T11:01:29;152730.81;;;1.24;57.01
11888;BME280;6003;42.756;23.130;2023-02-10T11:04:03;152722.94;;;1.21;58.03
11888;BME280;6003;42.756;23.130;2023-02-10T11:06:33;152673.09;;;1.02;58.17
11888;BME280;6003;42.756;23.130;2023-02-10T11:09:04;152688.81;;;1.08;58.34
11888;BME280;6003;42.756;23.130;2023-02-10T11:11:34;152686.22;;;1.07;57.45
11888;BME280;6003;42.756;23.130;2023-02-10T11:14:02;152677.00;;;1.03;57.74
11888;BME280;6003;42.756;23.130;2023-02-10T11:16:29;152671.78;;;1.01;57.95
11888;BME280;6003;42.756;23.130;2023-02-10T11:19:17;152708.50;;;1.16;57.35
11888;BME280;6003;42.756;23.130;2023-02-10T11:21:44;152733.41;;;1.25;58.71
11888;BME280;6003;42.756;23.130;2023-02-10T11:24:18;152674.41;;;1.02;56.74
11888;BME280;6003;42.756;23.130;2023-02-10T11:26:57;152629.81;;;0.85;56.71
11888;BME280;6003;42.756;23.130;2023-02-10T11:29:25;152644.25;;;0.90;58.37
11888;BME280;6003;42.756;23.130;2023-02-10T11:31:53;152695.38;;;1.10;59.06
11888;BME280;6003;42.756;23.130;2023-02-10T11:34:23;152703.25;;;1.13;57.93
11888;BME280;6003;42.756;23.130;2023-02-10T11:36:52;152736.03;;;1.26;59.41
11888;BME280;6003;42.756;23.130;2023-02-10T11:39:24;152736.03;;;1.26;58.25
11888;BME280;6003;42.756;23.130;2023-02-10T11:41:52;152725.53;;;1.22;59.17
11888;BME280;6003;42.756;23.130;2023-02-10T11:44:25;152745.22;;;1.30;59.93
11888;BME280;6003;42.756;23.130;2023-02-10T11:46:58;152743.88;;;1.29;58.31
11888;BME280;6003;42.756;23.130;2023-02-10T11:49:30;152754.41;;;1.33;58.87
11888;BME280;6003;42.756;23.130;2023-02-10T11:52:00;152762.28;;;1.37;57.12
11888;BME280;6003;42.756;23.130;2023-02-10T11:54:29;152763.56;;;1.37;57.41
11888;BME280;6003;42.756;23.130;2023-02-10T11:57:08;152743.88;;;1.29;57.99
11888;BME280;6003;42.756;23.130;2023-02-10T12:00:04;152754.41;;;1.33;56.97
11888;BME280;6003;42.756;23.130;2023-02-10T12:02:47;152757.00;;;1.34;58.17
11888;BME280;6003;42.756;23.130;2023-02-10T12:05:26;152751.81;;;1.32;55.43
11888;BME280;6003;42.756;23.130;2023-02-10T12:08:07;152753.09;;;1.33;55.07
11888;BME280;6003;42.756;23.130;2023-02-10T12:10:41;152785.88;;;1.46;57.20
11888;BME280;6003;42.756;23.130;2023-02-10T12:13:21;152808.19;;;1.54;56.40
11888;BME280;6003;42.756;23.130;2023-02-10T12:16:01;152826.56;;;1.62;54.79
11888;BME280;6003;42.756;23.130;2023-02-10T12:22:05;152838.34;;;1.66;55.71
11888;BME280;6003;42.756;23.130;2023-02-10T12:24:57;152851.47;;;1.71;58.48
11888;BME280;6003;42.756;23.130;2023-02-10T12:27:37;152868.53;;;1.78;59.11
11888;BME280;6003;42.756;23.130;2023-02-10T12:30:17;152859.34;;;1.74;57.56
11888;BME280;6003;42.756;23.130;2023-02-10T12:32:54;152861.94;;;1.75;58.76
11888;BME280;6003;42.756;23.130;2023-02-10T12:35:28;152861.94;;;1.75;56.74
11888;BME280;6003;42.756;23.130;2023-02-10T12:38:05;152846.22;;;1.69;56.69
11888;BME280;6003;42.756;23.130;2023-02-10T12:40:47;152858.03;;;1.74;58.08
11888;BME280;6003;42.756;23.130;2023-02-10T12:43:28;152842.31;;;1.68;57.40
11888;BME280;6003;42.756;23.130;2023-02-10T12:46:02;152816.03;;;1.57;58.62
11888;BME280;6003;42.756;23.130;2023-02-10T12:51:49;152848.88;;;1.70;56.87
11888;BME280;6003;42.756;23.130;2023-02-10T12:54:21;152856.75;;;1.73;57.66
11888;BME280;6003;42.756;23.130;2023-02-10T12:56:55;152879.03;;;1.82;58.33
11888;BME280;6003;42.756;23.130;2023-02-10T12:59:28;152903.97;;;1.92;58.79
11888;BME280;6003;42.756;23.130;2023-02-10T13:01:59;152905.25;;;1.92;57.38
11888;BME280;6003;42.756;23.130;2023-02-10T13:04:30;152897.41;;;1.89;56.43
11888;BME280;6003;42.756;23.130;2023-02-10T13:07:00;152890.81;;;1.87;55.35
11888;BME280;6003;42.756;23.130;2023-02-10T13:09:34;152898.69;;;1.90;55.72
11888;BME280;6003;42.756;23.130;2023-02-10T13:12:13;152885.63;;;1.85;55.37
11888;BME280;6003;42.756;23.130;2023-02-10T13:14:43;152885.63;;;1.85;56.03
11888;BME280;6003;42.756;23.130;2023-02-10T13:17:11;152884.25;;;1.84;56.52
11888;BME280;6003;42.756;23.130;2023-02-10T13:19:49;152898.69;;;1.90;57.89
11888;BME280;6003;42.756;23.130;2023-02-10T13:22:23;152901.34;;;1.91;57.54
11888;BME280;6003;42.756;23.130;2023-02-10T13:24:59;152922.38;;;1.99;58.16
11888;BME280;6003;42.756;23.130;2023-02-10T13:27:37;152911.84;;;1.95;57.50
11888;BME280;6003;42.756;23.130;2023-02-10T13:30:25;152906.63;;;1.93;57.35
11888;BME280;6003;42.756;23.130;2023-02-10T13:33:03;152896.09;;;1.89;57.35
11888;BME280;6003;42.756;23.130;2023-02-10T13:35:32;152906.63;;;1.93;55.33
11888;BME280;6003;42.756;23.130;2023-02-10T13:38:06;152888.22;;;1.86;55.59
11888;BME280;6003;42.756;23.130;2023-02-10T13:40:45;152888.22;;;1.86;56.01